Time;durP1;ratioP1;P1;durP2;ratioP2;P2;SDS_P1;SDS_P2;PMS_P1;PMS_P2;Temp;Humidity;BMP_temperature;BMP_pressure;BME280_temperature;BME280_humidity;BME280_pressure;Samples;Min_cycle;Max_cycle;Signal;HPM_P1;HPM_P2
2022/11/10 00:00:26;;;;;;;9.93;2.63;;;9.50;99.90;;;;;;5054108;28;20041;-63
2022/11/10 00:02:52;;;;;;;9.43;2.58;;;9.50;99.90;;;;;;5054859;28;20500;-63
2022/11/10 00:05:17;;;;;;;9.77;2.22;;;9.50;99.90;;;;;;5054007;28;20041;-63
2022/11/10 00:07:43;;;;;;;8.85;2.35;;;9.60;99.90;;;;;;5054827;28;20044;-63
2022/11/10 00:10:09;;;;;;;10.00;2.45;;;9.60;99.90;;;;;;5037160;28;20072;-63
2022/11/10 00:12:34;;;;;;;9.32;2.40;;;9.50;99.90;;;;;;5019477;28;20453;-63
2022/11/10 00:17:44;;;;;;;9.60;2.83;;;9.50;99.90;;;;;;5036543;28;20049;-64
2022/11/10 00:20:11;;;;;;;12.93;2.63;;;9.50;99.90;;;;;;5036250;28;20723;-63
2022/11/10 00:22:38;;;;;;;10.07;2.22;;;9.50;99.90;;;;;;5036601;28;20072;-63
2022/11/10 00:25:05;;;;;;;10.43;3.17;;;9.50;99.90;;;;;;5019907;28;20060;-64
2022/11/10 00:27:33;;;;;;;11.93;3.03;;;9.50;99.90;;;;;;5035886;28;20139;-64
2022/11/10 00:29:59;;;;;;;11.20;2.83;;;9.50;99.90;;;;;;5019789;28;20044;-63
2022/11/10 00:32:24;;;;;;;12.13;3.13;;;9.50;99.90;;;;;;5036480;28;20044;-64
2022/11/10 00:34:50;;;;;;;11.07;2.72;;;9.50;99.90;;;;;;5035656;28;20069;-64
2022/11/10 00:37:16;;;;;;;9.38;2.85;;;9.50;99.90;;;;;;5036413;28;20050;-64
2022/11/10 00:39:42;;;;;;;8.13;2.88;;;9.50;99.90;;;;;;5036444;28;20048;-63
2022/11/10 00:42:07;;;;;;;10.57;2.63;;;9.50;99.90;;;;;;5036163;28;20033;-64
2022/11/10 00:44:33;;;;;;;9.50;2.88;;;9.50;99.90;;;;;;5018462;28;20044;-63
2022/11/10 00:46:59;;;;;;;9.05;3.20;;;9.50;99.90;;;;;;5036532;28;20132;-64
2022/11/10 00:49:25;;;;;;;11.60;2.47;;;9.50;99.90;;;;;;5035768;28;20508;-64
2022/11/10 00:51:51;;;;;;;10.27;2.92;;;9.50;99.90;;;;;;5054183;28;20405;-64
2022/11/10 00:54:17;;;;;;;10.18;2.55;;;9.50;99.90;;;;;;5036021;28;20086;-64
2022/11/10 00:56:42;;;;;;;13.88;3.10;;;9.50;99.90;;;;;;5053110;28;20041;-64
2022/11/10 00:59:08;;;;;;;12.93;3.63;;;9.50;99.90;;;;;;5036282;28;20513;-64
2022/11/10 01:01:34;;;;;;;12.43;3.03;;;9.50;99.90;;;;;;5035116;28;20433;-64
2022/11/10 01:04:00;;;;;;;15.13;3.35;;;9.50;99.90;;;;;;5019556;28;20079;-64
2022/11/10 01:06:25;;;;;;;10.43;2.97;;;9.50;99.90;;;;;;5035756;28;20051;-64
2022/11/10 01:08:51;;;;;;;10.63;3.10;;;9.50;99.90;;;;;;5035360;28;20524;-64
2022/11/10 01:11:19;;;;;;;12.88;2.80;;;9.50;99.90;;;;;;5053567;28;20525;-64
2022/11/10 01:13:45;;;;;;;11.18;3.33;;;9.50;99.90;;;;;;5035745;28;20057;-64
2022/11/10 01:16:18;;;;;;;15.48;3.03;;;9.50;99.90;;;;;;5035263;28;20521;-64
2022/11/10 01:18:48;;;;;;;11.05;2.90;;;9.60;99.90;;;;;;5035599;28;20071;-64
2022/11/10 01:21:14;;;;;;;10.80;3.13;;;9.60;99.90;;;;;;5035881;28;20043;-64
2022/11/10 01:23:40;;;;;;;9.85;3.72;;;9.60;99.90;;;;;;5052783;28;20402;-64
2022/11/10 01:26:06;;;;;;;10.55;3.13;;;9.60;99.90;;;;;;5053066;28;20053;-64
2022/11/10 01:28:33;;;;;;;9.77;3.35;;;9.60;99.90;;;;;;5018735;28;20474;-64
2022/11/10 01:31:01;;;;;;;12.55;3.00;;;9.60;99.90;;;;;;5052303;28;20037;-64
2022/11/10 01:33:27;;;;;;;8.00;2.55;;;9.60;99.90;;;;;;5018947;28;20120;-64
2022/11/10 01:35:53;;;;;;;9.82;2.65;;;9.60;99.90;;;;;;5035374;28;20486;-64
2022/11/10 01:38:19;;;;;;;9.20;2.60;;;9.60;99.90;;;;;;5034813;28;20095;-64
2022/11/10 01:40:44;;;;;;;9.77;3.40;;;9.60;99.90;;;;;;5035028;28;20486;-64
2022/11/10 01:43:11;;;;;;;17.98;3.35;;;9.60;99.90;;;;;;5053066;28;20040;-64
2022/11/10 01:45:48;;;;;;;12.23;3.00;;;9.50;99.90;;;;;;5052326;28;20102;-64
2022/11/10 01:48:21;;;;;;;13.05;3.72;;;9.60;99.90;;;;;;5034967;28;20486;-64
2022/11/10 01:50:48;;;;;;;15.32;3.55;;;9.60;99.90;;;;;;5017843;28;20076;-64
2022/11/10 01:53:21;;;;;;;13.82;3.13;;;9.50;99.90;;;;;;5035276;28;20072;-64
2022/11/10 01:55:48;;;;;;;15.32;3.72;;;9.60;99.90;;;;;;5034460;28;20075;-64
2022/11/10 01:58:18;;;;;;;16.63;3.75;;;9.50;99.90;;;;;;5033890;28;20072;-65
2022/11/10 02:00:44;;;;;;;14.30;3.85;;;9.60;99.90;;;;;;5052717;28;20091;-64
2022/11/10 02:03:29;;;;;;;13.63;3.53;;;9.60;99.90;;;;;;5035044;28;20083;-64
2022/11/10 02:05:55;;;;;;;11.70;3.08;;;9.60;99.90;;;;;;5051863;28;20063;-64
2022/11/10 02:08:22;;;;;;;10.98;4.47;;;9.60;99.90;;;;;;5018127;28;20060;-64
2022/11/10 02:10:47;;;;;;;11.52;4.25;;;9.60;99.90;;;;;;5034824;28;20385;-64
2022/11/10 02:13:13;;;;;;;17.02;4.50;;;9.60;99.90;;;;;;5034513;28;20045;-64
2022/11/10 02:15:39;;;;;;;13.27;5.45;;;9.50;99.90;;;;;;5018312;28;20048;-64
2022/11/10 02:18:04;;;;;;;14.95;5.00;;;9.60;99.90;;;;;;5052468;28;20044;-64
2022/11/10 02:20:30;;;;;;;13.98;5.15;;;9.50;99.90;;;;;;5051547;28;20037;-64
2022/11/10 02:22:56;;;;;;;17.00;5.40;;;9.50;99.90;;;;;;5034341;28;20073;-64
2022/11/10 02:25:24;;;;;;;14.80;4.68;;;9.50;99.90;;;;;;5034133;28;20446;-64
2022/11/10 02:27:50;;;;;;;13.05;4.80;;;9.50;99.90;;;;;;5033808;28;20481;-64
2022/11/10 02:30:16;;;;;;;15.23;5.88;;;9.50;99.90;;;;;;5034437;28;20037;-64
2022/11/10 02:32:42;;;;;;;15.95;5.68;;;9.50;99.90;;;;;;5018004;28;20040;-64
2022/11/10 02:35:08;;;;;;;17.35;6.47;;;9.50;99.90;;;;;;5033897;28;20055;-64
2022/11/10 02:37:34;;;;;;;18.15;6.43;;;9.50;99.90;;;;;;5034185;28;20049;-64
2022/11/10 02:39:59;;;;;;;17.30;6.22;;;9.50;99.90;;;;;;5033262;28;20099;-64
2022/11/10 02:42:25;;;;;;;19.90;5.90;;;9.50;99.90;;;;;;5034210;28;20033;-65
2022/11/10 02:44:51;;;;;;;14.73;5.47;;;9.50;99.90;;;;;;5034168;28;20452;-64
2022/11/10 02:47:17;;;;;;;15.15;5.30;;;9.40;99.90;;;;;;5051191;28;20052;-64
2022/11/10 02:49:43;;;;;;;16.38;5.68;;;9.40;99.90;;;;;;5034064;28;20045;-64
2022/11/10 02:52:10;;;;;;;16.95;5.78;;;9.50;99.90;;;;;;5052405;28;20049;-64
2022/11/10 02:54:35;;;;;;;13.23;5.55;;;9.40;99.90;;;;;;5033297;28;20045;-64
2022/11/10 02:57:01;;;;;;;15.73;5.32;;;9.40;99.90;;;;;;5051869;28;20087;-64
2022/11/10 02:59:27;;;;;;;15.13;5.20;;;9.50;99.90;;;;;;5051787;28;20033;-65
2022/11/10 03:01:53;;;;;;;19.38;5.65;;;9.50;99.90;;;;;;5033232;28;20044;-64
2022/11/10 03:04:19;;;;;;;18.48;7.40;;;9.50;99.90;;;;;;5033947;28;20044;-64
2022/11/10 03:06:45;;;;;;;15.65;5.43;;;9.50;99.90;;;;;;5051863;28;20044;-64
2022/11/10 03:09:11;;;;;;;12.57;4.97;;;9.50;99.90;;;;;;5055098;28;20086;-64
2022/11/10 03:11:37;;;;;;;19.67;6.93;;;9.50;99.90;;;;;;5055972;28;20044;-64
2022/11/10 03:14:02;;;;;;;15.95;5.72;;;9.50;99.90;;;;;;5055730;28;20041;-64
2022/11/10 03:16:28;;;;;;;17.40;5.28;;;9.50;99.90;;;;;;5037108;28;20049;-64
2022/11/10 03:18:54;;;;;;;20.52;5.80;;;9.50;99.90;;;;;;5055698;28;20052;-64
2022/11/10 03:21:20;;;;;;;18.00;5.28;;;9.50;99.90;;;;;;5038120;28;20048;-64
2022/11/10 03:23:45;;;;;;;15.07;6.15;;;9.50;99.90;;;;;;5054884;28;20036;-64
2022/11/10 03:26:11;;;;;;;18.15;5.30;;;9.50;99.90;;;;;;5037993;28;20135;-65
2022/11/10 03:28:37;;;;;;;14.52;5.60;;;9.50;99.90;;;;;;5037710;28;20055;-64
2022/11/10 03:31:02;;;;;;;14.98;4.32;;;9.50;99.90;;;;;;5036837;28;20045;-64
2022/11/10 03:33:28;;;;;;;16.35;6.35;;;9.50;99.90;;;;;;5055397;28;20072;-64
2022/11/10 03:35:53;;;;;;;15.05;5.40;;;9.50;99.90;;;;;;5037379;28;20041;-64
2022/11/10 03:38:19;;;;;;;13.85;5.50;;;9.50;99.90;;;;;;5036613;28;20040;-64
2022/11/10 03:40:45;;;;;;;17.05;5.38;;;9.50;99.90;;;;;;5055375;28;20142;-64
2022/11/10 03:43:11;;;;;;;21.70;5.38;;;9.50;99.90;;;;;;5054842;28;20041;-64
2022/11/10 03:45:36;;;;;;;13.05;5.68;;;9.50;99.90;;;;;;5037325;28;20083;-64
2022/11/10 03:48:02;;;;;;;16.05;5.30;;;9.50;99.90;;;;;;5055002;28;20087;-64
2022/11/10 03:50:28;;;;;;;17.00;5.72;;;9.50;99.90;;;;;;5054223;28;20041;-64
2022/11/10 03:52:53;;;;;;;12.57;5.50;;;9.50;99.90;;;;;;5037083;28;20049;-64
2022/11/10 03:55:19;;;;;;;12.35;4.88;;;9.50;99.90;;;;;;5055260;28;20048;-64
2022/11/10 03:57:45;;;;;;;17.23;5.85;;;9.50;99.90;;;;;;5036579;28;20036;-64
2022/11/10 04:00:12;;;;;;;21.13;6.20;;;9.60;99.90;;;;;;5037459;28;20041;-65
2022/11/10 04:02:38;;;;;;;15.32;5.78;;;9.60;99.90;;;;;;5037080;28;20045;-64
2022/11/10 04:10:39;;;;;;;19.05;6.35;;;9.80;99.90;;;;;;5055007;28;20485;-64
2022/11/10 04:15:50;;;;;;;17.88;6.95;;;9.90;99.90;;;;;;5054548;28;20632;-64
2022/11/10 04:18:25;;;;;;;21.30;6.78;;;9.90;99.90;;;;;;5036564;28;20504;-64
2022/11/10 04:20:56;;;;;;;18.95;6.97;;;9.90;99.90;;;;;;5054537;28;20044;-64
2022/11/10 04:23:27;;;;;;;21.02;5.68;;;9.90;99.90;;;;;;5054373;28;20040;-64
2022/11/10 04:28:52;;;;;;;24.80;7.35;;;10.00;99.90;;;;;;5036319;28;20053;-64
2022/11/10 04:31:19;;;;;;;19.38;6.30;;;10.00;99.90;;;;;;5036481;28;20086;-64
2022/11/10 04:33:46;;;;;;;16.67;5.60;;;10.00;99.90;;;;;;5053540;28;20095;-64
2022/11/10 04:36:16;;;;;;;19.65;7.88;;;10.00;99.90;;;;;;5036373;28;20045;-64
2022/11/10 04:38:41;;;;;;;18.48;6.88;;;10.00;99.90;;;;;;5036681;28;20174;-64
2022/11/10 04:41:08;;;;;;;21.02;6.95;;;10.00;99.90;;;;;;5035982;28;20492;-64
2022/11/10 04:43:34;;;;;;;19.42;7.55;;;10.00;99.90;;;;;;5054094;28;20620;-64
2022/11/10 04:46:01;;;;;;;19.38;6.78;;;10.00;99.90;;;;;;5036238;28;20139;-64
2022/11/10 04:48:27;;;;;;;14.82;6.07;;;10.00;99.90;;;;;;5019090;28;20080;-64
2022/11/10 04:50:53;;;;;;;18.02;7.20;;;10.00;99.90;;;;;;5035966;28;20049;-64
2022/11/10 04:53:19;;;;;;;19.50;5.57;;;10.00;99.90;;;;;;5036199;28;20398;-64
2022/11/10 04:55:45;;;;;;;21.58;6.32;;;9.90;99.90;;;;;;5035353;28;20045;-64
2022/11/10 04:58:12;;;;;;;18.35;6.28;;;10.00;99.90;;;;;;5036303;28;20127;-64
2022/11/10 05:00:39;;;;;;;21.92;6.82;;;10.00;99.90;;;;;;5035153;28;20490;-64
2022/11/10 05:03:07;;;;;;;15.25;6.20;;;10.00;99.90;;;;;;5053716;28;20124;-64
2022/11/10 05:05:33;;;;;;;17.58;5.90;;;10.00;99.90;;;;;;5053784;28;20041;-64
2022/11/10 05:07:59;;;;;;;22.40;7.05;;;9.90;99.90;;;;;;5035008;28;20051;-64
2022/11/10 05:10:25;;;;;;;22.05;8.13;;;9.90;99.90;;;;;;5019439;28;20029;-64
2022/11/10 05:12:57;;;;;;;18.42;6.07;;;9.90;99.90;;;;;;5035783;28;20505;-64
2022/11/10 05:15:24;;;;;;;18.58;6.05;;;9.90;99.90;;;;;;5052696;28;20045;-64
2022/11/10 05:17:51;;;;;;;23.83;7.60;;;9.90;99.90;;;;;;5035657;28;20040;-64
2022/11/10 05:20:18;;;;;;;19.92;6.28;;;9.90;99.90;;;;;;5035761;28;20037;-64
2022/11/10 05:25:34;;;;;;;20.42;6.35;;;9.90;99.90;;;;;;5035276;28;20057;-64
2022/11/10 05:28:00;;;;;;;17.77;5.57;;;9.90;99.90;;;;;;5035369;28;20041;-64
2022/11/10 05:30:25;;;;;;;15.23;5.30;;;9.80;99.90;;;;;;5033983;28;20087;-64
2022/11/10 05:32:51;;;;;;;17.05;6.15;;;9.90;99.90;;;;;;5053348;28;20432;-64
2022/11/10 05:35:16;;;;;;;14.02;6.47;;;9.80;99.90;;;;;;5053025;28;20037;-64
2022/11/10 05:37:42;;;;;;;15.30;5.18;;;9.80;99.90;;;;;;5034550;28;20474;-64
2022/11/10 05:40:08;;;;;;;21.10;6.10;;;9.80;99.90;;;;;;5053415;28;20423;-64
2022/11/10 05:42:41;;;;;;;22.00;6.35;;;9.90;99.90;;;;;;5052960;28;20041;-64
2022/11/10 05:45:07;;;;;;;22.80;6.10;;;9.90;99.90;;;;;;5053223;28;20097;-64
2022/11/10 05:47:36;;;;;;;21.17;6.70;;;9.90;99.90;;;;;;5053037;28;20082;-64
2022/11/10 05:50:02;;;;;;;23.83;5.55;;;9.80;99.90;;;;;;5052088;28;20072;-64
2022/11/10 05:52:28;;;;;;;16.73;5.75;;;9.90;99.90;;;;;;5034920;28;20049;-64
2022/11/10 05:54:56;;;;;;;20.60;6.25;;;9.90;99.90;;;;;;5052804;28;20041;-64
2022/11/10 05:57:22;;;;;;;14.55;5.15;;;9.90;99.90;;;;;;5033820;28;20476;-64
2022/11/10 05:59:48;;;;;;;18.77;6.57;;;9.90;99.90;;;;;;5052725;28;20131;-64
2022/11/10 06:02:13;;;;;;;20.98;6.05;;;9.90;99.90;;;;;;5018575;28;20094;-64
2022/11/10 06:04:39;;;;;;;15.25;5.40;;;9.90;99.90;;;;;;5034124;28;20482;-64
2022/11/10 06:07:06;;;;;;;19.90;5.53;;;10.00;99.90;;;;;;5052381;28;20045;-64
2022/11/10 06:09:33;;;;;;;21.77;5.45;;;10.00;99.90;;;;;;5034667;28;20049;-64
2022/11/10 06:11:58;;;;;;;18.58;5.38;;;10.00;99.90;;;;;;5051484;28;20044;-64
2022/11/10 06:14:24;;;;;;;21.00;5.53;;;10.00;99.90;;;;;;5034929;28;20048;-64
2022/11/10 06:16:50;;;;;;;16.00;5.13;;;10.00;99.90;;;;;;5052210;28;20536;-64
2022/11/10 06:19:16;;;;;;;19.08;5.15;;;10.00;99.90;;;;;;5033904;28;20032;-64
2022/11/10 06:21:41;;;;;;;16.20;5.20;;;10.10;99.90;;;;;;5052584;28;20448;-64
2022/11/10 06:24:08;;;;;;;24.55;5.13;;;10.10;99.90;;;;;;5034582;28;20066;-65
2022/11/10 06:26:34;;;;;;;13.55;4.55;;;10.10;99.90;;;;;;5051350;28;20053;-64
2022/11/10 06:29:00;;;;;;;19.20;4.93;;;10.10;99.90;;;;;;5034309;28;20383;-65
2022/11/10 06:31:25;;;;;;;17.13;4.53;;;10.10;99.90;;;;;;5034318;28;20132;-64
2022/11/10 06:33:51;;;;;;;16.75;4.13;;;10.20;99.90;;;;;;5033390;28;20044;-64
2022/11/10 06:36:17;;;;;;;20.85;4.78;;;10.20;99.90;;;;;;5034170;28;20041;-64
2022/11/10 06:38:43;;;;;;;18.67;5.07;;;10.20;99.90;;;;;;5034119;28;20170;-64
2022/11/10 06:41:09;;;;;;;15.68;4.72;;;10.20;99.90;;;;;;5051449;28;20045;-64
2022/11/10 06:43:34;;;;;;;18.58;4.97;;;10.30;99.90;;;;;;5033615;28;20048;-64
2022/11/10 06:46:00;;;;;;;23.15;4.95;;;10.30;99.90;;;;;;5017527;28;20074;-65
2022/11/10 06:48:25;;;;;;;25.92;5.43;;;10.30;99.90;;;;;;5051512;28;20072;-65
2022/11/10 06:50:51;;;;;;;22.23;6.60;;;10.30;99.90;;;;;;5051975;28;20401;-65
2022/11/10 06:53:17;;;;;;;24.60;4.97;;;10.30;99.90;;;;;;5033325;28;20413;-65
2022/11/10 06:55:43;;;;;;;21.90;4.88;;;10.30;99.90;;;;;;5033789;28;20120;-64
2022/11/10 06:58:09;;;;;;;23.23;4.60;;;10.40;99.90;;;;;;5052308;28;20116;-65
2022/11/10 07:00:35;;;;;;;24.60;6.13;;;10.40;99.90;;;;;;5033119;28;20167;-65
2022/11/10 07:03:05;;;;;;;24.73;5.28;;;10.40;99.90;;;;;;5026762;28;20137;-65
2022/11/10 07:05:36;;;;;;;20.33;4.47;;;10.40;99.90;;;;;;5049567;28;20593;-65
2022/11/10 07:08:03;;;;;;;19.95;5.43;;;10.40;99.90;;;;;;5050682;28;20769;-65
2022/11/10 07:10:29;;;;;;;19.48;4.28;;;10.40;99.90;;;;;;5031698;28;20052;-65
2022/11/10 07:12:59;;;;;;;18.85;5.15;;;10.40;99.90;;;;;;5031280;28;20040;-65
2022/11/10 07:15:25;;;;;;;17.52;4.55;;;10.40;99.90;;;;;;5030900;28;20052;-65
2022/11/10 07:17:51;;;;;;;20.55;5.05;;;10.40;99.90;;;;;;5031565;28;20162;-65
2022/11/10 07:20:17;;;;;;;17.85;4.65;;;10.40;99.90;;;;;;5048862;28;20072;-64
2022/11/10 07:22:43;;;;;;;19.10;5.15;;;10.40;99.90;;;;;;5030508;28;20398;-64
2022/11/10 07:25:09;;;;;;;23.65;4.82;;;10.40;99.90;;;;;;5049510;28;20456;-64
2022/11/10 07:27:34;;;;;;;25.85;4.60;;;10.40;99.90;;;;;;5014339;28;20048;-64
2022/11/10 07:30:00;;;;;;;19.90;5.32;;;10.40;99.90;;;;;;5030294;28;20045;-64
2022/11/10 07:32:26;;;;;;;21.35;5.13;;;10.40;99.90;;;;;;5049343;28;20406;-64
2022/11/10 07:34:51;;;;;;;24.17;6.22;;;10.40;99.90;;;;;;5048599;28;20037;-64
2022/11/10 07:37:17;;;;;;;18.42;5.80;;;10.40;99.90;;;;;;5013875;28;20482;-64
2022/11/10 07:39:43;;;;;;;14.73;4.72;;;10.40;99.90;;;;;;5030839;28;20052;-64
2022/11/10 07:42:09;;;;;;;21.08;4.97;;;10.40;99.90;;;;;;5031598;28;20445;-64
2022/11/10 07:44:34;;;;;;;17.90;5.22;;;10.50;99.90;;;;;;5030388;28;20072;-64
2022/11/10 07:47:00;;;;;;;14.02;3.90;;;10.50;99.90;;;;;;5049115;28;20110;-64
2022/11/10 07:49:25;;;;;;;22.40;5.43;;;10.50;99.90;;;;;;5013891;28;20405;-65
2022/11/10 07:51:51;;;;;;;20.05;5.03;;;10.60;99.90;;;;;;5030688;28;20056;-64
2022/11/10 07:54:17;;;;;;;19.20;4.57;;;10.60;99.90;;;;;;5032907;28;20044;-64
2022/11/10 07:56:42;;;;;;;15.80;4.28;;;10.70;99.90;;;;;;5051065;28;20846;-64
2022/11/10 07:59:08;;;;;;;14.38;4.88;;;10.70;99.90;;;;;;5042057;28;20032;-65
2022/11/10 08:01:34;;;;;;;26.77;6.30;;;10.80;99.90;;;;;;5034664;28;20043;-65
2022/11/10 08:03:59;;;;;;;14.20;4.63;;;10.90;99.90;;;;;;5028848;28;20041;-64
2022/11/10 08:06:25;;;;;;;15.90;4.00;;;11.00;99.90;;;;;;5015010;28;20045;-64
2022/11/10 08:08:51;;;;;;;20.17;5.20;;;11.10;99.90;;;;;;5046286;28;20041;-64
2022/11/10 08:11:16;;;;;;;15.60;4.13;;;11.20;99.90;;;;;;5032780;28;20045;-64
2022/11/10 08:13:42;;;;;;;25.40;5.57;;;11.30;99.90;;;;;;5034587;28;20047;-64
2022/11/10 08:16:08;;;;;;;22.08;4.32;;;11.30;99.90;;;;;;5052199;28;20045;-64
2022/11/10 08:18:34;;;;;;;19.80;4.63;;;11.40;99.90;;;;;;5033168;28;20102;-64
2022/11/10 08:21:00;;;;;;;15.80;5.03;;;11.40;99.90;;;;;;5052401;28;20049;-64
2022/11/10 08:23:27;;;;;;;14.23;4.00;;;11.50;99.90;;;;;;5033855;28;20041;-64
2022/11/10 08:25:56;;;;;;;15.50;4.30;;;11.50;99.90;;;;;;5059930;28;20049;-64
2022/11/10 08:28:22;;;;;;;17.52;4.07;;;11.50;99.90;;;;;;5017438;28;20103;-64
2022/11/10 08:30:48;;;;;;;18.35;4.22;;;11.50;99.90;;;;;;5033981;28;20570;-64
2022/11/10 08:33:16;;;;;;;17.73;4.07;;;11.60;99.90;;;;;;5030148;28;20124;-64
2022/11/10 08:35:44;;;;;;;21.23;6.03;;;11.50;99.90;;;;;;5044718;28;20133;-64
2022/11/10 08:38:15;;;;;;;16.13;4.47;;;11.50;99.90;;;;;;5051644;28;20083;-64
2022/11/10 08:40:42;;;;;;;17.23;5.35;;;11.50;99.90;;;;;;5032796;28;20048;-64
2022/11/10 08:43:08;;;;;;;26.33;5.65;;;11.50;99.90;;;;;;5052247;28;20043;-65
2022/11/10 08:45:36;;;;;;;12.45;4.43;;;11.60;99.90;;;;;;5033874;28;20037;-64
2022/11/10 08:48:05;;;;;;;17.02;4.45;;;11.50;99.90;;;;;;5030066;28;20088;-64
2022/11/10 08:50:31;;;;;;;23.25;6.53;;;11.50;99.90;;;;;;5031873;28;20081;-64
2022/11/10 08:53:01;;;;;;;17.98;4.97;;;11.60;99.90;;;;;;5024098;28;20041;-68
2022/11/10 08:55:27;;;;;;;17.02;4.78;;;11.60;99.90;;;;;;5016689;28;20124;-67
2022/11/10 08:58:00;;;;;;;13.90;3.28;;;11.70;99.90;;;;;;5033334;28;20497;-69
2022/11/10 09:00:27;;;;;;;14.07;4.40;;;11.70;99.90;;;;;;5031084;28;20453;-67
2022/11/10 09:03:02;;;;;;;17.52;5.10;;;11.70;99.90;;;;;;5034452;28;20116;-70
2022/11/10 09:05:27;;;;;;;21.50;4.68;;;11.80;99.90;;;;;;5050932;28;20059;-68
2022/11/10 09:07:53;;;;;;;16.60;4.22;;;11.90;99.90;;;;;;5035482;28;20505;-67
2022/11/10 09:10:19;;;;;;;14.07;4.53;;;11.90;99.90;;;;;;5035813;28;20045;-67
2022/11/10 09:12:44;;;;;;;19.77;4.60;;;11.90;99.90;;;;;;5035586;28;20041;-67
2022/11/10 09:15:11;;;;;;;20.80;5.35;;;12.00;99.90;;;;;;5035195;28;20124;-68
2022/11/10 09:17:37;;;;;;;17.83;5.15;;;12.00;99.90;;;;;;5035571;28;20573;-65
2022/11/10 09:20:05;;;;;;;14.55;4.47;;;12.00;99.90;;;;;;5035632;28;20044;-64
2022/11/10 09:22:31;;;;;;;15.70;5.55;;;12.00;99.90;;;;;;5034776;28;20040;-64
2022/11/10 09:24:56;;;;;;;13.30;3.97;;;12.00;99.90;;;;;;5035339;28;20106;-66
2022/11/10 09:27:22;;;;;;;18.83;5.18;;;12.00;99.90;;;;;;5019103;28;20052;-64
2022/11/10 09:29:48;;;;;;;17.80;4.40;;;12.00;99.90;;;;;;5034391;28;20138;-65
2022/11/10 09:32:13;;;;;;;14.73;4.72;;;11.90;99.90;;;;;;5019131;28;20363;-65
2022/11/10 09:34:39;;;;;;;17.77;5.57;;;11.90;99.90;;;;;;5053730;28;20080;-64
2022/11/10 09:37:05;;;;;;;18.20;5.80;;;11.90;99.90;;;;;;5034415;28;20080;-65
2022/11/10 09:39:30;;;;;;;17.73;5.03;;;11.90;99.90;;;;;;5035481;28;20049;-65
2022/11/10 09:41:56;;;;;;;14.07;5.85;;;11.90;99.90;;;;;;5034465;28;20044;-65
2022/11/10 09:44:26;;;;;;;22.75;5.57;;;11.90;99.90;;;;;;5035284;28;20033;-66
2022/11/10 09:47:06;;;;;;;15.25;5.25;;;11.90;99.90;;;;;;5034552;28;20043;-65
2022/11/10 09:49:45;;;;;;;18.98;5.78;;;11.90;99.90;;;;;;5028136;28;20075;-65
2022/11/10 09:52:12;;;;;;;19.95;5.72;;;11.90;99.90;;;;;;5052598;28;20112;-66
2022/11/10 09:54:55;;;;;;;15.80;6.30;;;12.00;99.90;;;;;;5034365;28;20076;-67
2022/11/10 09:57:24;;;;;;;18.10;6.10;;;12.00;99.90;;;;;;5033349;28;20041;-67
2022/11/10 09:59:50;;;;;;;20.02;5.35;;;12.10;99.90;;;;;;5052208;28;20036;-65
2022/11/10 10:02:40;;;;;;;20.50;7.07;;;12.10;99.90;;;;;;5033942;28;20489;-66
2022/11/10 10:05:33;;;;;;;19.48;5.13;;;12.10;99.90;;;;;;5032664;28;20037;-67
2022/11/10 10:08:03;;;;;;;17.85;6.30;;;12.20;99.90;;;;;;5032107;28;20024;-67
2022/11/10 10:10:48;;;;;;;13.18;5.38;;;12.30;99.90;;;;;;5050971;28;20508;-66
2022/11/10 10:13:23;;;;;;;20.00;5.47;;;12.40;99.90;;;;;;5034385;28;20040;-67
2022/11/10 10:15:49;;;;;;;;;;;12.40;99.90;;;;;;5033796;28;20127;-68
2022/11/10 10:18:56;;;;;;;18.20;5.35;;;12.50;99.90;;;;;;5033343;28;20330;-66
2022/11/10 10:21:45;;;;;;;19.30;5.38;;;12.50;99.90;;;;;;5026658;28;20086;-68
2022/11/10 10:24:14;;;;;;;15.85;5.10;;;12.50;99.90;;;;;;5025686;28;20037;-67
2022/11/10 10:27:18;;;;;;;13.27;4.05;;;12.50;99.90;;;;;;5034396;28;20121;-66
2022/11/10 10:29:48;;;;;;;17.75;4.68;;;12.60;99.90;;;;;;5043534;28;20040;-65
2022/11/10 10:32:15;;;;;;;14.50;4.95;;;12.60;99.90;;;;;;5026722;28;20072;-66
2022/11/10 10:34:42;;;;;;;11.63;4.43;;;12.50;99.90;;;;;;5044569;28;20073;-67
2022/11/10 10:37:42;;;;;;;15.85;4.43;;;12.60;99.90;;;;;;5027818;28;20397;-67
2022/11/10 10:40:14;;;;;;;16.30;4.65;;;12.60;99.90;;;;;;5050424;28;20044;-67
2022/11/10 10:42:40;;;;;;;16.70;5.03;;;12.60;99.90;;;;;;5054303;28;20028;-67
2022/11/10 10:45:21;;;;;;;19.15;4.70;;;12.60;99.90;;;;;;5018211;28;20041;-66
2022/11/10 10:47:49;;;;;;;17.63;4.70;;;12.70;99.90;;;;;;5031576;28;20055;-67
2022/11/10 10:50:15;;;;;;;28.63;5.68;;;12.70;99.90;;;;;;5030561;28;20501;-66
2022/11/10 10:53:13;;;;;;;12.65;4.38;;;12.70;99.90;;;;;;5026671;28;20067;-66
2022/11/10 10:55:51;;;;;;;20.33;6.10;;;12.70;99.90;;;;;;5009677;28;20049;-67
2022/11/10 10:58:26;;;;;;;17.02;5.57;;;12.70;99.90;;;;;;5051915;28;20107;-65
2022/11/10 11:01:19;;;;;;;19.48;5.68;;;12.70;99.90;;;;;;5043548;28;20538;-66
2022/11/10 11:03:50;;;;;;;16.48;5.22;;;12.80;99.90;;;;;;5049204;28;20041;-67
2022/11/10 11:06:16;;;;;;;21.25;6.30;;;12.70;99.90;;;;;;5029706;28;20479;-66
2022/11/10 11:09:14;;;;;;;16.17;5.75;;;12.70;99.90;;;;;;5030717;28;20045;-66
2022/11/10 11:11:41;;;;;;;22.33;6.63;;;12.70;99.90;;;;;;5014648;28;20494;-66
2022/11/10 11:14:25;;;;;;;21.55;6.18;;;12.70;99.90;;;;;;5006401;28;20045;-65
2022/11/10 11:16:52;;;;;;;17.95;5.70;;;12.70;99.90;;;;;;5016988;28;20045;-65
2022/11/10 11:19:20;;;;;;;17.73;6.28;;;12.70;99.90;;;;;;5030315;28;20051;-68
2022/11/10 11:22:24;;;;;;;23.05;6.50;;;12.70;99.90;;;;;;5031403;28;20040;-67
2022/11/10 11:25:23;;;;;;;17.88;6.32;;;12.70;99.90;;;;;;5030423;28;20478;-64
2022/11/10 11:28:02;;;;;;;19.58;6.20;;;12.70;99.90;;;;;;5047362;28;20041;-63
2022/11/10 11:30:40;;;;;;;21.60;6.00;;;12.70;99.90;;;;;;5035628;28;20048;-63
2022/11/10 11:33:15;;;;;;;20.17;6.05;;;12.70;99.90;;;;;;5036799;28;20037;-63
2022/11/10 11:35:59;;;;;;;19.83;5.63;;;12.70;99.90;;;;;;5036359;28;20044;-63
2022/11/10 11:38:53;;;;;;;21.23;6.13;;;12.60;99.90;;;;;;5054402;28;20045;-62
2022/11/10 11:41:41;;;;;;;16.38;5.13;;;12.60;99.90;;;;;;5035986;28;20053;-62
2022/11/10 11:44:33;;;;;;;17.90;5.78;;;12.60;99.90;;;;;;5053643;28;20029;-63
2022/11/10 11:47:14;;;;;;;16.92;5.82;;;12.60;99.90;;;;;;5045242;28;20058;-64
2022/11/10 11:50:04;;;;;;;19.05;5.97;;;12.50;99.90;;;;;;5033578;28;20128;-64
2022/11/10 11:52:38;;;;;;;20.63;6.93;;;12.50;99.90;;;;;;5037273;28;20051;-62
2022/11/10 11:55:09;;;;;;;16.95;5.43;;;12.50;99.90;;;;;;5054839;28;20055;-63
2022/11/10 11:57:35;;;;;;;15.18;5.30;;;12.50;99.90;;;;;;5032137;28;20136;-64
2022/11/10 12:00:10;;;;;;;18.67;5.75;;;12.50;99.90;;;;;;5050420;28;21180;-63
2022/11/10 12:03:28;;;;;;;19.52;5.50;;;12.40;99.90;;;;;;5053960;28;20037;-63
2022/11/10 12:06:02;;;;;;;25.08;6.53;;;12.40;99.90;;;;;;5027416;28;20045;-64
2022/11/10 12:08:49;;;;;;;19.43;5.73;;;12.50;99.90;;;;;;5019048;28;20094;-65
2022/11/10 12:11:45;;;;;;;17.70;5.30;;;12.40;99.90;;;;;;5053801;28;20041;-66
2022/11/10 12:14:36;;;;;;;18.60;5.57;;;12.50;99.90;;;;;;5033858;28;20049;-67
2022/11/10 12:17:20;;;;;;;17.80;4.97;;;12.40;99.90;;;;;;5052482;28;20098;-68
2022/11/10 12:19:51;;;;;;;15.90;4.95;;;12.40;99.90;;;;;;5053778;28;20396;-67
2022/11/10 12:22:30;;;;;;;16.80;5.47;;;12.50;99.90;;;;;;5036207;28;20489;-67
2022/11/10 12:24:59;;;;;;;21.45;5.68;;;12.50;99.90;;;;;;5033502;28;20053;-67
2022/11/10 12:27:38;;;;;;;20.17;5.40;;;12.50;99.90;;;;;;5032425;28;20482;-65
2022/11/10 12:30:09;;;;;;;21.55;5.22;;;12.60;99.90;;;;;;5032394;28;20041;-65
2022/11/10 12:32:38;;;;;;;16.30;5.22;;;12.70;99.90;;;;;;5049480;28;20128;-64
2022/11/10 12:35:25;;;;;;;20.92;5.38;;;12.70;99.90;;;;;;5035807;28;20075;-64
2022/11/10 12:38:14;;;;;;;17.48;5.55;;;12.70;99.90;;;;;;5053278;28;20048;-64
2022/11/10 12:40:46;;;;;;;21.48;5.45;;;12.70;99.90;;;;;;5002170;28;20095;-65
2022/11/10 12:43:34;;;;;;;18.75;5.05;;;12.80;99.90;;;;;;5035675;28;20417;-65
2022/11/10 12:46:04;;;;;;;14.45;4.60;;;12.80;99.90;;;;;;5020027;28;20507;-65
2022/11/10 12:48:50;;;;;;;14.27;4.50;;;12.80;99.90;;;;;;5035267;28;20049;-65
2022/11/10 12:51:46;;;;;;;17.67;4.30;;;12.80;99.90;;;;;;5035469;28;20135;-65
2022/11/10 12:54:15;;;;;;;18.80;5.63;;;12.80;99.90;;;;;;5019560;28;20085;-66
2022/11/10 12:56:49;;;;;;;15.38;4.57;;;12.80;99.90;;;;;;5035508;28;20044;-66
2022/11/10 12:59:20;;;;;;;15.43;5.25;;;12.80;99.90;;;;;;5034848;28;20185;-65
2022/11/10 13:01:51;;;;;;;24.73;5.00;;;12.70;99.90;;;;;;5053481;28;20037;-65
2022/11/10 13:04:19;;;;;;;20.50;5.22;;;12.70;99.90;;;;;;5035576;28;20112;-66
2022/11/10 13:06:51;;;;;;;19.67;5.15;;;12.80;99.90;;;;;;5032095;28;20053;-67
2022/11/10 13:09:27;;;;;;;18.98;4.78;;;12.80;99.90;;;;;;5018336;28;20074;-64